Saturday, May 26, 2018, 12:08 PM GMT
Back to Local

CYRJ, Roberval, Que.

Location: , , Canada Lat: 48.517
Local Time: 12:08 PM GMT (12:08 GMT) Lon: -72.267
Time Zone: GMT Elev: 587 ft

Show me the last for .
Show Decoded

2018-05-26 11:00 METAR CYRJ 261100Z 32009KT 40SM BKN220 09/02 A2980 RMK CI6 SLP095 =
2018-05-26 10:00 METAR CYRJ 261000Z 31009KT 40SM FEW100 OVC220 08/02 A2977 RMK AC1CI8 AC TR
                 SLP084 =
2018-05-26 09:00 METAR CYRJ 260900Z 32007KT 40SM FEW100 BKN220 08/02 A2973 RMK AC2CI5 SLP073 =
2018-05-26 08:00 METAR CYRJ 260800Z 31009KT 40SM FEW025 BKN100 09/02 A2971 RMK SC1AC6 SC TR
                 SLP066 =
2018-05-26 07:00 METAR CYRJ 260700Z 32009KT 20SM BKN091 11/02 A2969 RMK AC5 SLP058 =
2018-05-26 06:00 METAR CYRJ 260600Z 32009G15KT 20SM SCT087 BKN240 13/03 A2968 RMK AC3CI4 SLP053
                 DENSITY ALT 800FT =
2018-05-26 05:00 METAR CYRJ 260500Z 31007KT 20SM OVC240 13/03 A2967 RMK CI8 SLP050 DENSITY ALT
                 800FT =
2018-05-26 04:00 METAR CYRJ 260400Z 35004KT 20SM OVC230 16/03 A2965 RMK CI8 SLP043 DENSITY ALT
                 1200FT =
2018-05-26 03:00 METAR CYRJ 260300Z 31006KT 20SM BKN230 16/04 A2961 RMK CI7 SLP031 DENSITY ALT
                 1200FT =
2018-05-26 02:00 METAR CYRJ 260200Z 34007KT 20SM FEW100 BKN240 19/03 A2959 RMK AC2CI5 SLP025
                 DENSITY ALT 1600FT =
2018-05-26 01:00 METAR CYRJ 260100Z 26004KT 40SM BKN100 OVC220 19/04 A2956 RMK AC5CI3 SLP015
                 DENSITY ALT 1600FT =
2018-05-26 00:00 METAR CYRJ 260000Z 32006KT 40SM BKN100 BKN220 21/04 A2955 RMK AC6CI1 SLP011
                 DENSITY ALT 1800FT =
2018-05-25 23:00 METAR CYRJ 252300Z 35006KT 40SM BKN098 BKN220 23/04 A2953 RMK AC6CI1 SLP005
                 DENSITY ALT 2100FT =
2018-05-25 22:00 METAR CYRJ 252200Z 32017KT 40SM SCT094 BKN120 24/05 A2951 RMK AC3AC2 SLP998
                 DENSITY ALT 2300FT =
2018-05-25 21:00 METAR CYRJ 252100Z 32016KT 40SM FEW060 BKN090 24/06 A2952 RMK CU1AC6 SLP999
                 DENSITY ALT 2300FT =
2018-05-25 20:00 METAR CYRJ 252000Z 35007KT 320V020 40SM FEW050 BKN090 23/07 A2953 RMK CU1AC6
                 SLP003 DENSITY ALT 2100FT =
2018-05-25 19:00 METAR CYRJ 251900Z 05003KT 330V120 40SM FEW050 BKN110 23/10 A2954 RMK CU1AC5
                 SLP006 DENSITY ALT 2100FT =
2018-05-25 18:00 METAR CYRJ 251800Z VRB02KT 40SM FEW050 BKN100 21/10 A2955 RMK CU2AC3 SLP011
                 DENSITY ALT 1800FT =
2018-05-25 17:00 METAR CYRJ 251700Z 10003KT 060V150 25SM FEW050 BKN100 19/11 A2957 RMK CU1AC6
                 SLP018 DENSITY ALT 1700FT =
2018-05-25 16:00 METAR CYRJ 251600Z 01002KT 20SM FEW050TCU BKN120 18/10 A2959 RMK TCU1AC6 SLP026
                 DENSITY ALT 1500FT =
2018-05-25 15:00 METAR CYRJ 251500Z 15003KT 130V260 20SM BKN120 12/08 A2962 RMK AC6 SLP036
                 DENSITY ALT 700FT =
2018-05-25 14:22 METAR CYRJ 251422Z 01004KT 340V080 20SM -SHRA BKN095 BKN130 10/07 A2962 RMK
                 AC5AC2 CVCTV CLD EMBD SLP037 =
2018-05-25 14:00 METAR CYRJ 251400Z VRB02KT 25SM BKN099 BKN140 11/08 A2961 RMK AC5AC2 PRESFR
                 SLP031 DENSITY ALT 700FT =
2018-05-25 13:00 METAR CYRJ 251300Z 31005KT 290V010 25SM FEW100 BKN140 12/08 A2959 RMK AC1AC6
                 SLP026 DENSITY ALT 800FT =

Support USWX by starting your Amazon purchase here.